Pagrindinis puslapis
METAR-TAF:

METAR-TAF

Oro uostai :

Rodrigesas, Mauricijus

platuma: 19-41S, ilguma: 063-25E, Aukštis: 58 m

Dabartinis oras

Ataskaita buvo paskelbta 57 minutes, ne 14:00 UTC
Vėjas 6 kt iš Šiaurės
Temperatūra 27°C
Drėgmė 84%
Slėgis 1015 hPa
Matomumas 10 km arba daugiau
Su prošvaistėmis ne aukštis 1600 ft
Liūtis kaimynystėje

METAR: FIMR 201400Z 35006KT 9999 VCSH BKN016 27/24 Q1015

Laikas: 18:57 (14:57 UTC)

Prognozė

Ataskaita buvo paskelbta 3 valandos ir 32 minutes, ne 11:25 UTC
Prognozė galioja nuo 20 metu 12 UTC su 21 metu 06 UTC
Vėjas 8 kt iš Rytų/Šiaurės Rytų
Matomumas 10 km arba daugiau
Išsisklaidę debesys ne aukštis 1600 ft
Laikinai
nuo 20 metu 12 UTC su 20 metu 15 UTC
Matomumas: 5000 m
Su prošvaistėmis ne aukštis 1500 ft
lietus

TAF: FIMR 201125Z 2012/2106 07008KT 9999 SCT016 TEMPO 2012/2015 5000 -SHRA BKN015

Orai ataskaitas ir orų prognozės (METAR, TAF).

turimą stotys yra geltonos ir raudonos taškus žemėlapyje.

Perkelti pele per norėdami pamatyti stoties vardą.

Tada spustelėkite, norėdami matyti oro stebėjimo ir prognozės.

Norėdami pakeisti žemėlapį: spustelėkite ant žalios mygtukų su juodo kryžiaus žemyn,; žalią mygtuką su brūkšneliu, jei norite nutolinti; arba žalių rodyklių gretimoms žemėlapius.


METAR-TAF: